createdAt,value
2022-08-30T00:00:14.107Z,993.56
2022-08-30T00:01:15.829Z,993.54
2022-08-30T00:02:17.729Z,993.63
2022-08-30T00:03:19.632Z,993.64
2022-08-30T00:04:21.053Z,993.58
2022-08-30T00:05:22.778Z,993.56
2022-08-30T00:06:24.546Z,993.56
2022-08-30T00:07:26.328Z,993.54
2022-08-30T00:08:27.988Z,993.53
2022-08-30T00:09:29.733Z,993.55
2022-08-30T00:10:31.462Z,993.51
2022-08-30T00:11:33.188Z,993.53
2022-08-30T00:12:24.668Z,993.51
2022-08-30T00:13:26.389Z,993.48
2022-08-30T00:14:28.126Z,993.52
2022-08-30T00:15:29.931Z,993.51
2022-08-30T00:16:31.638Z,993.49
2022-08-30T00:17:33.353Z,993.54
2022-08-30T00:18:35.081Z,993.52
2022-08-30T00:19:36.794Z,993.53
2022-08-30T00:20:38.518Z,993.53
2022-08-30T00:21:40.256Z,993.53
2022-08-30T00:22:42.010Z,993.52
2022-08-30T00:23:43.726Z,993.49
2022-08-30T00:24:45.508Z,993.49
2022-08-30T00:25:47.200Z,993.51
2022-08-30T00:26:48.990Z,993.48
2022-08-30T00:27:50.667Z,993.48
2022-08-30T00:28:52.444Z,993.49
2022-08-30T00:29:54.143Z,993.5
2022-08-30T00:30:55.916Z,993.42
2022-08-30T00:31:57.632Z,993.46
2022-08-30T00:32:59.372Z,993.44
2022-08-30T00:34:01.082Z,993.47
2022-08-30T00:35:02.809Z,993.47
2022-08-30T00:36:04.531Z,993.49
2022-08-30T00:37:06.273Z,993.52
2022-08-30T00:38:08.012Z,993.52
2022-08-30T00:39:09.737Z,993.55
2022-08-30T00:40:11.568Z,993.53
2022-08-30T00:41:13.231Z,993.59
2022-08-30T00:42:14.973Z,993.6
2022-08-30T00:43:16.963Z,993.56
2022-08-30T00:44:18.419Z,993.63
2022-08-30T00:45:20.163Z,993.59
2022-08-30T00:46:21.952Z,993.58
2022-08-30T00:47:23.626Z,993.65
2022-08-30T00:48:25.356Z,993.6
2022-08-30T00:49:27.096Z,993.62
2022-08-30T00:50:28.842Z,993.65
2022-08-30T00:51:30.569Z,993.62
2022-08-30T00:52:32.323Z,993.6
2022-08-30T00:53:34.046Z,993.62
2022-08-30T00:54:35.768Z,993.61
2022-08-30T00:55:38.967Z,993.62
2022-08-30T00:56:39.242Z,993.64
2022-08-30T00:57:40.996Z,993.63
2022-08-30T00:58:42.704Z,993.66
2022-08-30T00:59:44.442Z,993.65
2022-08-30T01:00:46.227Z,993.63
2022-08-30T01:01:47.975Z,993.64
2022-08-30T01:02:49.752Z,993.64
2022-08-30T01:03:51.386Z,993.64
2022-08-30T01:04:53.128Z,993.64
2022-08-30T01:05:54.860Z,993.65
2022-08-30T01:06:56.592Z,993.68
2022-08-30T01:07:58.323Z,993.72
2022-08-30T01:09:00.079Z,993.72
2022-08-30T01:10:01.802Z,993.66
2022-08-30T01:11:04.563Z,993.73
2022-08-30T01:12:05.262Z,993.69
2022-08-30T01:13:07.016Z,993.71
2022-08-30T01:14:08.729Z,993.66
2022-08-30T01:15:10.473Z,993.67
2022-08-30T01:16:12.316Z,993.65
2022-08-30T01:17:13.945Z,993.64
2022-08-30T01:18:15.669Z,993.62
2022-08-30T01:19:17.471Z,993.61
2022-08-30T01:20:19.135Z,993.62
2022-08-30T01:21:20.872Z,993.62
2022-08-30T01:22:22.603Z,993.62
2022-08-30T01:23:24.348Z,993.58
2022-08-30T01:24:26.078Z,993.55
2022-08-30T01:25:27.837Z,993.52
2022-08-30T01:26:29.590Z,993.54
2022-08-30T01:27:31.285Z,993.5
2022-08-30T01:28:33.016Z,993.55
2022-08-30T01:29:34.772Z,993.56
2022-08-30T01:30:36.563Z,993.6
2022-08-30T01:31:38.228Z,993.58
2022-08-30T01:32:39.946Z,993.58
2022-08-30T01:33:41.737Z,993.58
2022-08-30T01:34:43.435Z,993.61
2022-08-30T01:35:45.163Z,993.59
2022-08-30T01:36:46.913Z,993.6
2022-08-30T01:37:48.630Z,993.62
2022-08-30T01:38:50.379Z,993.6
2022-08-30T01:39:52.103Z,993.58
2022-08-30T01:40:53.854Z,993.56
2022-08-30T01:41:55.566Z,993.56
2022-08-30T01:42:57.304Z,993.53
2022-08-30T01:43:59.054Z,993.53
2022-08-30T01:45:00.777Z,993.52
2022-08-30T01:46:05.601Z,993.57
2022-08-30T01:47:04.243Z,993.57
2022-08-30T01:48:06.766Z,993.61
2022-08-30T01:49:07.732Z,993.53
2022-08-30T01:50:09.445Z,993.54
2022-08-30T01:51:11.189Z,993.54
2022-08-30T01:52:12.974Z,993.54
2022-08-30T01:53:14.767Z,993.6
2022-08-30T01:54:16.391Z,993.6
2022-08-30T01:55:18.136Z,993.61
2022-08-30T01:56:19.877Z,993.6
2022-08-30T01:57:21.603Z,993.6
2022-08-30T01:58:23.378Z,993.57
2022-08-30T01:59:25.069Z,993.62
2022-08-30T02:00:26.820Z,993.63
2022-08-30T02:01:28.707Z,993.63
2022-08-30T02:02:30.288Z,993.64
2022-08-30T02:03:32.111Z,993.59
2022-08-30T02:04:33.763Z,993.61
2022-08-30T02:05:35.560Z,993.62
2022-08-30T02:06:37.231Z,993.62
2022-08-30T02:07:38.965Z,993.58
2022-08-30T02:08:40.689Z,993.62
2022-08-30T02:09:42.428Z,993.61
2022-08-30T02:10:44.152Z,993.6
2022-08-30T02:11:45.871Z,993.64
2022-08-30T02:12:47.625Z,993.61
2022-08-30T02:13:49.360Z,993.59
2022-08-30T02:14:51.094Z,993.56
2022-08-30T02:15:52.831Z,993.51
2022-08-30T02:16:54.657Z,993.51
2022-08-30T02:17:56.297Z,993.54
2022-08-30T02:18:58.030Z,993.55
2022-08-30T02:19:59.765Z,993.5
2022-08-30T02:21:01.514Z,993.55
2022-08-30T02:22:03.241Z,993.53
2022-08-30T02:23:04.987Z,993.53
2022-08-30T02:24:06.701Z,993.54
2022-08-30T02:25:16.452Z,993.56
2022-08-30T02:26:10.177Z,993.55
2022-08-30T02:27:11.910Z,993.57
2022-08-30T02:28:14.873Z,993.57
2022-08-30T02:29:15.373Z,993.55
2022-08-30T02:30:17.116Z,993.56
2022-08-30T02:31:19.457Z,993.52
2022-08-30T02:32:20.594Z,993.55
2022-08-30T02:33:22.355Z,993.47
2022-08-30T02:34:24.067Z,993.49
2022-08-30T02:35:25.811Z,993.49
2022-08-30T02:36:27.531Z,993.42
2022-08-30T02:37:29.279Z,993.41
2022-08-30T02:38:31.013Z,993.39
2022-08-30T02:39:32.748Z,993.36
2022-08-30T02:40:34.552Z,993.36
2022-08-30T02:41:36.234Z,993.33
2022-08-30T02:42:37.960Z,993.33
2022-08-30T02:43:39.695Z,993.32
2022-08-30T02:44:41.416Z,993.34
2022-08-30T02:45:43.245Z,993.33
2022-08-30T02:46:44.903Z,993.34
2022-08-30T02:47:47.225Z,993.36
2022-08-30T02:48:48.368Z,993.4
2022-08-30T02:49:50.119Z,993.4
2022-08-30T02:50:51.847Z,993.38
2022-08-30T02:51:53.589Z,993.36
2022-08-30T02:52:55.573Z,993.4
2022-08-30T02:53:57.011Z,993.4
2022-08-30T02:54:58.749Z,993.36
2022-08-30T02:56:00.540Z,993.32
2022-08-30T02:57:02.222Z,993.26
2022-08-30T02:58:03.956Z,993.25
2022-08-30T02:59:05.690Z,993.26
2022-08-30T03:00:07.459Z,993.25
2022-08-30T03:01:09.181Z,993.18
2022-08-30T03:02:10.894Z,993.21
2022-08-30T03:03:12.773Z,993.22
2022-08-30T03:04:14.370Z,993.18
2022-08-30T03:05:16.108Z,993.22
2022-08-30T03:06:17.831Z,993.23
2022-08-30T03:07:19.572Z,993.25
2022-08-30T03:08:21.337Z,993.27
2022-08-30T03:09:23.036Z,993.17
2022-08-30T03:10:24.775Z,993.18
2022-08-30T03:11:26.504Z,993.22
2022-08-30T03:12:28.255Z,993.21
2022-08-30T03:13:29.992Z,993.23
2022-08-30T03:14:31.726Z,993.29
2022-08-30T03:15:33.460Z,993.26
2022-08-30T03:16:35.227Z,993.31
2022-08-30T03:17:36.928Z,993.36
2022-08-30T03:18:38.662Z,993.33
2022-08-30T03:19:40.387Z,993.33
2022-08-30T03:20:42.127Z,993.28
2022-08-30T03:21:43.886Z,993.24
2022-08-30T03:22:45.597Z,993.29
2022-08-30T03:23:47.345Z,993.26
2022-08-30T03:24:49.070Z,993.27
2022-08-30T03:25:50.813Z,993.3
2022-08-30T03:26:52.535Z,993.3
2022-08-30T03:27:54.278Z,993.3
2022-08-30T03:28:56.011Z,993.33
2022-08-30T03:29:57.743Z,993.41
2022-08-30T03:30:59.468Z,993.43
2022-08-30T03:32:01.298Z,993.42
2022-08-30T03:33:02.957Z,993.41
2022-08-30T03:34:04.674Z,993.35
2022-08-30T03:35:06.414Z,993.37
2022-08-30T03:36:08.163Z,993.33
2022-08-30T03:37:09.894Z,993.28
2022-08-30T03:38:11.633Z,993.25
2022-08-30T03:39:14.048Z,993.22
2022-08-30T03:40:15.143Z,993.26
2022-08-30T03:41:16.818Z,993.27
2022-08-30T03:42:18.572Z,993.29
2022-08-30T03:43:20.295Z,993.26
2022-08-30T03:44:22.045Z,993.32
2022-08-30T03:45:23.870Z,993.29
2022-08-30T03:46:28.041Z,993.27
2022-08-30T03:47:27.240Z,993.24
2022-08-30T03:48:29.004Z,993.19
2022-08-30T03:49:30.711Z,993.19
2022-08-30T03:50:32.491Z,993.17
2022-08-30T03:51:34.194Z,993.21
2022-08-30T03:52:35.917Z,993.22
2022-08-30T03:53:37.684Z,993.18
2022-08-30T03:54:39.391Z,993.18
2022-08-30T03:55:41.123Z,993.17
2022-08-30T03:56:42.864Z,993.2
2022-08-30T03:57:44.611Z,993.2
2022-08-30T03:58:46.315Z,993.14
2022-08-30T03:59:48.061Z,993.22
2022-08-30T04:00:49.677Z,993.22
2022-08-30T04:01:51.417Z,993.21
2022-08-30T04:02:53.146Z,993.21
2022-08-30T04:03:54.894Z,993.22
2022-08-30T04:04:56.572Z,993.21
2022-08-30T04:05:58.309Z,993.22
2022-08-30T04:07:00.041Z,993.21
2022-08-30T04:08:01.782Z,993.19
2022-08-30T04:09:03.522Z,993.22
2022-08-30T04:10:05.310Z,993.22
2022-08-30T04:11:06.982Z,993.18
2022-08-30T04:12:08.717Z,993.18
2022-08-30T04:13:10.453Z,993.13
2022-08-30T04:14:12.190Z,993.2
2022-08-30T04:15:13.923Z,993.18
2022-08-30T04:16:15.801Z,993.21
2022-08-30T04:17:17.372Z,993.26
2022-08-30T04:18:19.114Z,993.22
2022-08-30T04:19:20.853Z,993.22
2022-08-30T04:20:22.682Z,993.23
2022-08-30T04:21:24.324Z,993.24
2022-08-30T04:22:26.075Z,993.26
2022-08-30T04:23:27.790Z,993.23
2022-08-30T04:24:29.544Z,993.28
2022-08-30T04:25:31.267Z,993.26
2022-08-30T04:26:33.029Z,993.28
2022-08-30T04:27:34.770Z,993.28
2022-08-30T04:28:36.466Z,993.27
2022-08-30T04:29:38.213Z,993.28
2022-08-30T04:30:39.928Z,993.29
2022-08-30T04:31:41.738Z,993.3
2022-08-30T04:32:43.411Z,993.32
2022-08-30T04:33:45.151Z,993.28
2022-08-30T04:34:46.886Z,993.26
2022-08-30T04:35:48.657Z,993.29
2022-08-30T04:36:50.366Z,993.24
2022-08-30T04:37:52.097Z,993.25
2022-08-30T04:38:53.830Z,993.24
2022-08-30T04:39:55.556Z,993.25
2022-08-30T04:40:57.287Z,993.25
2022-08-30T04:41:59.052Z,993.24
2022-08-30T04:43:00.757Z,993.27
2022-08-30T04:44:02.506Z,993.29
2022-08-30T04:45:04.232Z,993.29
2022-08-30T04:46:06.065Z,993.28
2022-08-30T04:47:07.698Z,993.22
2022-08-30T04:48:09.428Z,993.25
2022-08-30T04:49:11.220Z,993.27
2022-08-30T04:50:12.900Z,993.22
2022-08-30T04:51:14.632Z,993.24
2022-08-30T04:52:16.410Z,993.19
2022-08-30T04:53:18.251Z,993.24
2022-08-30T04:54:19.955Z,993.24
2022-08-30T04:55:21.608Z,993.32
2022-08-30T04:56:23.320Z,993.32
2022-08-30T04:57:25.043Z,993.28
2022-08-30T04:58:26.768Z,993.36
2022-08-30T04:59:28.508Z,993.32
2022-08-30T05:00:30.269Z,993.39
2022-08-30T05:01:32.002Z,993.36
2022-08-30T05:02:33.780Z,993.39
2022-08-30T05:03:35.442Z,993.38
2022-08-30T05:04:37.182Z,993.38
2022-08-30T05:05:38.920Z,993.43
2022-08-30T05:06:40.648Z,993.43
2022-08-30T05:07:42.389Z,993.36
2022-08-30T05:08:45.919Z,993.42
2022-08-30T05:09:45.856Z,993.41
2022-08-30T05:10:47.605Z,993.47
2022-08-30T05:11:49.320Z,993.5
2022-08-30T05:12:51.161Z,993.45
2022-08-30T05:13:52.793Z,993.49
2022-08-30T05:14:54.533Z,993.49
2022-08-30T05:15:56.350Z,993.51
2022-08-30T05:16:58.006Z,993.51
2022-08-30T05:17:59.735Z,993.53
2022-08-30T05:19:01.476Z,993.55
2022-08-30T05:20:03.227Z,993.57
2022-08-30T05:21:04.933Z,993.58
2022-08-30T05:22:06.677Z,993.6
2022-08-30T05:23:08.414Z,993.63
2022-08-30T05:24:10.141Z,993.54
2022-08-30T05:25:14.724Z,993.6
2022-08-30T05:26:13.622Z,993.63
2022-08-30T05:27:15.336Z,993.59
2022-08-30T05:28:17.236Z,993.59
2022-08-30T05:29:18.826Z,993.54
2022-08-30T05:30:20.559Z,993.64
2022-08-30T05:31:07.411Z,993.64
2022-08-30T05:32:08.619Z,993.69
2022-08-30T05:33:10.334Z,993.72
2022-08-30T05:34:12.076Z,993.73
2022-08-30T05:35:13.820Z,993.69
2022-08-30T05:36:15.544Z,993.69
2022-08-30T05:37:17.273Z,993.7
2022-08-30T05:38:19.253Z,993.66
2022-08-30T05:39:21.046Z,993.71
2022-08-30T05:40:22.562Z,993.63
2022-08-30T05:41:26.377Z,993.7
2022-08-30T05:42:25.943Z,993.67
2022-08-30T05:43:30.123Z,993.7
2022-08-30T05:44:29.406Z,993.68
2022-08-30T05:45:31.146Z,993.72
2022-08-30T05:47:34.624Z,993.67
2022-08-30T05:48:36.345Z,993.65
2022-08-30T05:49:38.072Z,993.61
2022-08-30T05:50:40.109Z,993.61
2022-08-30T05:51:43.494Z,993.62
2022-08-30T05:52:43.320Z,993.65
2022-08-30T05:53:45.019Z,993.63
2022-08-30T05:54:46.758Z,993.61
2022-08-30T05:55:48.495Z,993.64
2022-08-30T05:56:50.240Z,993.64
2022-08-30T05:57:51.956Z,993.62
2022-08-30T05:58:53.701Z,993.64
2022-08-30T05:59:55.434Z,993.65
2022-08-30T06:00:57.179Z,993.65
2022-08-30T06:01:58.958Z,993.65
2022-08-30T06:03:00.773Z,993.66
2022-08-30T06:04:04.085Z,993.67
2022-08-30T06:05:04.106Z,993.66
2022-08-30T06:06:05.954Z,993.67
2022-08-30T06:07:10.494Z,993.69
2022-08-30T06:08:09.337Z,993.67
2022-08-30T06:09:11.041Z,993.64
2022-08-30T06:10:12.788Z,993.65
2022-08-30T06:11:14.517Z,993.63
2022-08-30T06:12:16.257Z,993.6
2022-08-30T06:13:18.076Z,993.64
2022-08-30T06:14:19.805Z,993.63
2022-08-30T06:15:21.460Z,993.65
2022-08-30T06:16:23.264Z,993.57
2022-08-30T06:17:24.929Z,993.63
2022-08-30T06:18:28.536Z,993.62
2022-08-30T06:19:28.394Z,993.61
2022-08-30T06:20:30.143Z,993.58
2022-08-30T06:21:31.861Z,993.59
2022-08-30T06:22:33.663Z,993.61
2022-08-30T06:23:35.335Z,993.62
2022-08-30T06:24:56.535Z,993.59
2022-08-30T06:25:42.195Z,993.66
2022-08-30T06:26:40.626Z,993.63
2022-08-30T06:27:42.281Z,993.63
2022-08-30T06:28:44.011Z,993.64
2022-08-30T06:29:45.757Z,993.7
2022-08-30T06:30:47.485Z,993.68
2022-08-30T06:31:49.357Z,993.67
2022-08-30T06:32:50.950Z,993.67
2022-08-30T06:33:52.704Z,993.67
2022-08-30T06:34:54.418Z,993.73
2022-08-30T06:35:58.774Z,993.72
2022-08-30T06:36:57.894Z,993.74
2022-08-30T06:37:59.625Z,993.73
2022-08-30T06:39:01.361Z,993.73
2022-08-30T06:40:03.250Z,993.7
2022-08-30T06:41:04.819Z,993.72
2022-08-30T06:42:06.578Z,993.75
2022-08-30T06:43:08.297Z,993.76
2022-08-30T06:44:10.069Z,993.76
2022-08-30T06:45:11.771Z,993.78
2022-08-30T06:46:13.710Z,993.8
2022-08-30T06:47:15.256Z,993.8
2022-08-30T06:48:17.194Z,993.83
2022-08-30T06:49:18.700Z,993.83
2022-08-30T06:50:20.441Z,993.87
2022-08-30T06:51:22.175Z,993.92
2022-08-30T06:52:23.928Z,993.96
2022-08-30T06:53:25.639Z,993.93
2022-08-30T06:54:27.391Z,993.94
2022-08-30T06:55:29.117Z,993.89
2022-08-30T06:56:31.133Z,993.89
2022-08-30T06:57:32.579Z,993.89
2022-08-30T06:58:34.333Z,993.92
2022-08-30T06:59:36.046Z,993.93
2022-08-30T07:00:37.791Z,993.98
2022-08-30T07:01:39.615Z,993.96
2022-08-30T07:02:41.337Z,993.94
2022-08-30T07:03:42.999Z,993.96
2022-08-30T07:04:44.729Z,993.91
2022-08-30T07:05:46.493Z,994
2022-08-30T07:06:48.185Z,993.92
2022-08-30T07:07:49.936Z,993.95
2022-08-30T07:08:55.898Z,993.91
2022-08-30T07:09:53.407Z,993.87
2022-08-30T07:10:55.217Z,993.84
2022-08-30T07:11:56.882Z,993.79
2022-08-30T07:12:58.611Z,993.82
2022-08-30T07:14:00.348Z,993.81
2022-08-30T07:15:02.097Z,993.82
2022-08-30T07:16:03.929Z,993.81
2022-08-30T07:17:05.578Z,993.82
2022-08-30T07:18:07.291Z,993.82
2022-08-30T07:19:09.018Z,993.81
2022-08-30T07:20:10.754Z,993.83
2022-08-30T07:21:12.477Z,993.83
2022-08-30T07:22:14.221Z,993.84
2022-08-30T07:23:16.049Z,993.84
2022-08-30T07:24:17.716Z,993.88
2022-08-30T07:25:19.910Z,993.93
2022-08-30T07:26:21.190Z,993.89
2022-08-30T07:27:22.896Z,993.89
2022-08-30T07:28:24.642Z,993.89
2022-08-30T07:29:26.368Z,993.9
2022-08-30T07:30:28.130Z,993.89
2022-08-30T07:31:29.843Z,993.87
2022-08-30T07:32:31.565Z,993.92
2022-08-30T07:33:33.333Z,993.87
2022-08-30T07:34:35.173Z,993.89
2022-08-30T07:35:36.975Z,993.93
2022-08-30T07:36:38.506Z,993.92
2022-08-30T07:37:40.263Z,993.93
2022-08-30T07:38:41.974Z,993.93
2022-08-30T07:39:47.554Z,993.92
2022-08-30T07:40:45.523Z,993.92
2022-08-30T07:41:47.194Z,993.94
2022-08-30T07:42:48.946Z,993.94
2022-08-30T07:43:50.655Z,993.93
2022-08-30T07:44:56.482Z,993.92
2022-08-30T07:45:54.147Z,993.94
2022-08-30T07:46:55.917Z,993.96
2022-08-30T07:47:57.597Z,993.9
2022-08-30T07:48:59.329Z,993.88
2022-08-30T07:50:01.061Z,993.87
2022-08-30T07:51:05.842Z,993.9
2022-08-30T07:52:04.577Z,993.95
2022-08-30T07:53:09.238Z,993.93
2022-08-30T07:54:08.027Z,993.91
2022-08-30T07:55:09.841Z,993.89
2022-08-30T07:56:11.489Z,993.9
2022-08-30T07:57:13.220Z,993.97
2022-08-30T07:58:14.948Z,993.92
2022-08-30T07:59:16.678Z,993.9
2022-08-30T08:00:18.434Z,993.91
2022-08-30T08:01:20.272Z,993.92
2022-08-30T08:02:21.966Z,993.91
2022-08-30T08:03:23.627Z,993.93
2022-08-30T08:04:25.391Z,993.88
2022-08-30T08:05:27.127Z,993.91
2022-08-30T08:06:33.317Z,993.9
2022-08-30T08:07:30.563Z,993.95
2022-08-30T08:08:32.289Z,993.91
2022-08-30T08:09:34.027Z,993.89
2022-08-30T08:10:35.762Z,993.89
2022-08-30T08:11:37.508Z,993.9
2022-08-30T08:12:39.233Z,993.91
2022-08-30T08:13:47.966Z,993.91
2022-08-30T08:14:42.697Z,993.92
2022-08-30T08:15:44.524Z,993.97
2022-08-30T08:16:46.202Z,993.92
2022-08-30T08:17:47.911Z,993.95
2022-08-30T08:18:49.647Z,993.94
2022-08-30T08:19:51.377Z,993.94
2022-08-30T08:20:53.315Z,993.99
2022-08-30T08:22:04.152Z,993.95
2022-08-30T08:22:56.578Z,993.96
2022-08-30T08:23:58.325Z,993.97
2022-08-30T08:25:00.065Z,993.97
2022-08-30T08:26:01.777Z,993.99
2022-08-30T08:26:45.309Z,993.95
2022-08-30T08:27:44.723Z,993.95
2022-08-30T08:28:46.464Z,993.98
2022-08-30T08:29:48.206Z,993.97
2022-08-30T08:30:50.016Z,993.96
2022-08-30T08:31:51.682Z,993.96
2022-08-30T08:32:53.378Z,993.9
2022-08-30T08:33:55.199Z,993.95
2022-08-30T08:34:56.883Z,993.92
2022-08-30T08:35:58.611Z,993.92
2022-08-30T08:37:00.326Z,993.92
2022-08-30T08:38:02.089Z,993.91
2022-08-30T08:39:03.814Z,993.88
2022-08-30T08:40:05.598Z,993.93
2022-08-30T08:41:07.249Z,993.91
2022-08-30T08:42:08.994Z,993.97
2022-08-30T08:43:10.725Z,993.95
2022-08-30T08:44:12.500Z,993.96
2022-08-30T08:45:14.228Z,993.92
2022-08-30T08:46:16.106Z,993.94
2022-08-30T08:47:17.700Z,993.88
2022-08-30T08:48:19.396Z,993.94
2022-08-30T08:49:21.122Z,993.95
2022-08-30T08:50:22.905Z,993.92
2022-08-30T08:51:24.642Z,993.99
2022-08-30T08:52:26.371Z,993.94
2022-08-30T08:53:45.268Z,993.92
2022-08-30T08:54:29.830Z,993.92
2022-08-30T08:55:31.583Z,993.94
2022-08-30T08:56:33.281Z,993.93
2022-08-30T08:57:35.054Z,993.92
2022-08-30T08:58:36.777Z,993.91
2022-08-30T08:59:38.486Z,993.89
2022-08-30T09:00:40.248Z,993.89
2022-08-30T09:01:42.075Z,993.94
2022-08-30T09:02:43.700Z,993.87
2022-08-30T09:03:45.449Z,993.84
2022-08-30T09:04:47.235Z,993.85
2022-08-30T09:05:49.025Z,993.83
2022-08-30T09:06:50.671Z,993.83
2022-08-30T09:07:52.367Z,993.84
2022-08-30T09:08:54.096Z,993.83
2022-08-30T09:09:55.835Z,993.81
2022-08-30T09:10:57.605Z,993.76
2022-08-30T09:11:59.307Z,993.79
2022-08-30T09:13:02.264Z,993.82
2022-08-30T09:14:02.810Z,993.82
2022-08-30T09:15:04.544Z,993.83
2022-08-30T09:16:06.285Z,993.84
2022-08-30T09:17:08.008Z,993.84
2022-08-30T09:18:10.195Z,993.83
2022-08-30T09:19:11.449Z,993.84
2022-08-30T09:20:13.191Z,993.83
2022-08-30T09:21:14.946Z,993.81
2022-08-30T09:22:16.659Z,993.81
2022-08-30T09:23:18.434Z,993.85
2022-08-30T09:24:20.682Z,993.76
2022-08-30T09:25:21.845Z,993.84
2022-08-30T09:26:23.626Z,993.82
2022-08-30T09:27:25.319Z,993.81
2022-08-30T09:28:27.083Z,993.77
2022-08-30T09:29:28.837Z,993.8
2022-08-30T09:30:30.529Z,993.71
2022-08-30T09:31:32.323Z,993.76
2022-08-30T09:32:34.033Z,993.73
2022-08-30T09:33:35.734Z,993.67
2022-08-30T09:34:37.472Z,993.69
2022-08-30T09:35:39.196Z,993.67
2022-08-30T09:36:40.944Z,993.68
2022-08-30T09:37:42.683Z,993.63
2022-08-30T09:38:44.410Z,993.65
2022-08-30T09:39:46.154Z,993.6
2022-08-30T09:40:47.894Z,993.61
2022-08-30T09:41:49.615Z,993.6
2022-08-30T09:42:51.395Z,993.59
2022-08-30T09:43:53.138Z,993.56
2022-08-30T09:44:54.841Z,993.53
2022-08-30T09:45:56.674Z,993.52
2022-08-30T09:46:58.301Z,993.55
2022-08-30T09:48:00.033Z,993.52
2022-08-30T09:49:01.810Z,993.51
2022-08-30T09:50:03.506Z,993.48
2022-08-30T09:51:05.243Z,993.49
2022-08-30T09:52:07.009Z,993.48
2022-08-30T09:53:08.750Z,993.5
2022-08-30T09:54:18.134Z,993.48
2022-08-30T09:55:12.175Z,993.49
2022-08-30T09:56:13.979Z,993.49
2022-08-30T09:57:15.638Z,993.44
2022-08-30T09:58:17.504Z,993.48
2022-08-30T09:59:19.118Z,993.44
2022-08-30T10:00:20.865Z,993.42
2022-08-30T10:01:22.928Z,993.42
2022-08-30T10:02:24.489Z,993.45
2022-08-30T10:03:35.660Z,993.41
2022-08-30T10:04:30.962Z,993.42
2022-08-30T10:05:29.581Z,993.42
2022-08-30T10:06:31.289Z,993.39
2022-08-30T10:07:33.026Z,993.43
2022-08-30T10:08:34.742Z,993.38
2022-08-30T10:09:36.467Z,993.39
2022-08-30T10:10:39.375Z,993.35
2022-08-30T10:11:39.977Z,993.37
2022-08-30T10:12:41.683Z,993.33
2022-08-30T10:13:43.414Z,993.42
2022-08-30T10:14:45.179Z,993.35
2022-08-30T10:15:46.877Z,993.41
2022-08-30T10:16:48.610Z,993.36
2022-08-30T10:17:19.531Z,993.33
2022-08-30T10:18:21.217Z,993.33
2022-08-30T10:19:22.987Z,993.28
2022-08-30T10:20:24.678Z,993.3
2022-08-30T10:21:26.423Z,993.33
2022-08-30T10:22:28.153Z,993.33
2022-08-30T10:23:29.924Z,993.35
2022-08-30T10:24:33.639Z,993.3
2022-08-30T10:25:33.401Z,993.34
2022-08-30T10:26:35.088Z,993.3
2022-08-30T10:27:36.843Z,993.26
2022-08-30T10:28:38.571Z,993.25
2022-08-30T10:29:42.481Z,993.23
2022-08-30T10:30:42.075Z,993.25
2022-08-30T10:31:43.783Z,993.23
2022-08-30T10:32:45.501Z,993.25
2022-08-30T10:33:47.289Z,993.26
2022-08-30T10:34:48.972Z,993.21
2022-08-30T10:35:52.196Z,993.24
2022-08-30T10:36:52.698Z,993.21
2022-08-30T10:37:54.180Z,993.2
2022-08-30T10:38:55.906Z,993.23
2022-08-30T10:39:57.649Z,993.22
2022-08-30T10:40:59.415Z,993.25
2022-08-30T10:42:01.140Z,993.22
2022-08-30T10:43:02.847Z,993.23
2022-08-30T10:44:04.580Z,993.23
2022-08-30T10:45:06.350Z,993.21
2022-08-30T10:46:08.083Z,993.24
2022-08-30T10:47:09.801Z,993.18
2022-08-30T10:48:12.114Z,993.18
2022-08-30T10:49:13.250Z,993.17
2022-08-30T10:50:15.034Z,993.16
2022-08-30T10:51:16.758Z,993.18
2022-08-30T10:52:18.709Z,993.21
2022-08-30T10:53:20.206Z,993.19
2022-08-30T10:54:21.930Z,993.21
2022-08-30T10:55:23.739Z,993.19
2022-08-30T10:56:25.784Z,993.23
2022-08-30T10:57:27.128Z,993.21
2022-08-30T10:58:28.914Z,993.16
2022-08-30T10:59:30.609Z,993.18
2022-08-30T11:00:32.352Z,993.22
2022-08-30T11:01:34.189Z,993.18
2022-08-30T11:02:35.846Z,993.17
2022-08-30T11:03:37.567Z,993.19
2022-08-30T11:04:39.737Z,993.2
2022-08-30T11:05:42.100Z,993.16
2022-08-30T11:06:42.762Z,993.16
2022-08-30T11:07:44.540Z,993.16
2022-08-30T11:08:46.251Z,993.15
2022-08-30T11:09:47.953Z,993.11
2022-08-30T11:10:50.079Z,993.12
2022-08-30T11:11:51.460Z,993.1
2022-08-30T11:12:53.243Z,993.15
2022-08-30T11:13:57.220Z,993.1
2022-08-30T11:14:56.660Z,993.11
2022-08-30T11:15:58.407Z,993.1
2022-08-30T11:17:00.115Z,993.1
2022-08-30T11:18:01.861Z,993.07
2022-08-30T11:19:03.611Z,993.1
2022-08-30T11:20:05.341Z,993.08
2022-08-30T11:21:09.200Z,993.11
2022-08-30T11:22:08.779Z,993.04
2022-08-30T11:23:10.557Z,993.04
2022-08-30T11:24:12.261Z,993.02
2022-08-30T11:25:13.995Z,993.04
2022-08-30T11:26:21.269Z,993.08
2022-08-30T11:27:17.453Z,993.07
2022-08-30T11:28:22.035Z,993.07
2022-08-30T11:29:20.942Z,993.04
2022-08-30T11:30:22.679Z,993.09
2022-08-30T11:31:24.476Z,993.09
2022-08-30T11:32:26.180Z,993.02
2022-08-30T11:33:27.871Z,993.01
2022-08-30T11:34:30.089Z,993.03
2022-08-30T11:35:31.345Z,993.07
2022-08-30T11:36:37.269Z,993.03
2022-08-30T11:37:34.858Z,993.01
2022-08-30T11:38:36.591Z,992.97
2022-08-30T11:39:38.277Z,992.98
2022-08-30T11:40:40.052Z,992.99
2022-08-30T11:41:43.854Z,992.96
2022-08-30T11:42:43.492Z,992.98
2022-08-30T11:43:45.210Z,992.95
2022-08-30T11:44:46.978Z,992.93
2022-08-30T11:45:49.080Z,992.94
2022-08-30T11:46:50.431Z,992.87
2022-08-30T11:47:52.184Z,992.92
2022-08-30T11:48:55.583Z,992.9
2022-08-30T11:49:55.676Z,992.92
2022-08-30T11:50:57.394Z,992.87
2022-08-30T11:52:26.323Z,992.88
2022-08-30T11:57:08.240Z,992.84
2022-08-30T11:59:00.133Z,992.8
2022-08-30T12:00:00.461Z,992.82
2022-08-30T12:01:31.801Z,992.76
2022-08-30T12:02:04.110Z,992.79
2022-08-30T12:03:05.971Z,992.8
2022-08-30T12:04:07.407Z,992.79
2022-08-30T12:05:09.114Z,992.76
2022-08-30T12:06:10.832Z,992.77
2022-08-30T12:07:12.599Z,992.77
2022-08-30T12:08:14.311Z,992.77
2022-08-30T12:09:16.069Z,992.78
2022-08-30T12:10:17.813Z,992.78
2022-08-30T12:11:19.482Z,992.76
2022-08-30T12:12:55.023Z,992.76
2022-08-30T12:13:56.494Z,992.75
2022-08-30T12:14:58.226Z,992.75
2022-08-30T12:15:59.920Z,992.74
2022-08-30T12:17:01.756Z,992.69
2022-08-30T12:18:03.389Z,992.69
2022-08-30T12:19:15.526Z,992.7
2022-08-30T12:20:17.136Z,992.69
2022-08-30T12:21:18.923Z,992.69
2022-08-30T12:22:20.623Z,992.68
2022-08-30T12:23:22.407Z,992.66
2022-08-30T12:24:24.081Z,992.68
2022-08-30T12:25:25.812Z,992.66
2022-08-30T12:26:27.540Z,992.67
2022-08-30T12:27:32.741Z,992.66
2022-08-30T12:28:31.016Z,992.64
2022-08-30T12:29:32.743Z,992.64
2022-08-30T12:30:34.503Z,992.68
2022-08-30T12:31:36.319Z,992.59
2022-08-30T12:32:37.950Z,992.64
2022-08-30T12:33:41.356Z,992.62
2022-08-30T12:34:41.454Z,992.58
2022-08-30T12:35:43.192Z,992.6
2022-08-30T12:37:10.021Z,992.58
2022-08-30T12:39:18.752Z,992.62
2022-08-30T12:40:20.519Z,992.61
2022-08-30T12:41:22.139Z,992.62
2022-08-30T12:42:23.894Z,992.59
2022-08-30T12:43:26.632Z,992.61
2022-08-30T12:43:41.613Z,992.57
2022-08-30T12:44:42.780Z,992.56
2022-08-30T12:45:44.595Z,992.52
2022-08-30T12:46:46.292Z,992.52
2022-08-30T12:47:47.973Z,992.5
2022-08-30T12:48:49.705Z,992.45
2022-08-30T12:49:51.453Z,992.47
2022-08-30T12:50:53.190Z,992.42
2022-08-30T12:51:54.920Z,992.46
2022-08-30T12:52:56.640Z,992.44
2022-08-30T12:53:58.366Z,992.46
2022-08-30T12:55:00.120Z,992.48
2022-08-30T12:56:06.832Z,992.48
2022-08-30T12:57:32.198Z,992.42
2022-08-30T12:58:05.337Z,992.45